Pagrindinis puslapis
METAR-TAF:

METAR-TAF

Oro uostai :

Unalakleet, Aliaska, Jungtinės Amerikos Valstijos

platuma: 63-53N, ilguma: 160-48W, Aukštis: 6 m

Dabartinis oras

Ataskaita buvo paskelbta 1 valandą ir 9 minutes, ne 15:56 UTC
Vėjas 7 kt iš Rytų/Pietryčių
Temperatūra -17°C
Drėgmė 84%
Slėgis 1018 hPa
Matomumas: 16.1 km
Apsiniaukę ne aukštis 1800 ft

METAR: PAUN 071556Z AUTO 11007KT 10SM OVC018 M17/M19 A3007 RMK AO2 SLP188 T11671194 FZRANO

Laikas: 09:05 (17:05 UTC)

Prognozė

Ataskaita buvo paskelbta 5 valandos ir 43 minutes, ne 11:22 UTC
Prognozė galioja nuo 07 metu 12 UTC su 08 metu 12 UTC
Vėjas 9 kt iš Pietų/Pietvakarių
Matomumas: 10 km
Su prošvaistėmis ne aukštis 1500 ft
Apsiniaukę ne aukštis 2500 ft
Nuo 07 metu 1800 UTC
Vėjas 6 kt iš Šiaurės/Šiaurės Vakarų
Matomumas: 10 km
Apsiniaukę ne aukštis 5000 ft

TAF: PAUN 071122Z 0712/0812 20009KT P6SM BKN015 OVC025 FM071800 33006KT P6SM OVC050

Orai ataskaitas ir orų prognozės (METAR, TAF).

turimą stotys yra geltonos ir raudonos taškus žemėlapyje.

Perkelti pele per norėdami pamatyti stoties vardą.

Tada spustelėkite, norėdami matyti oro stebėjimo ir prognozės.

Norėdami pakeisti žemėlapį: spustelėkite ant žalios mygtukų su juodo kryžiaus žemyn,; žalią mygtuką su brūkšneliu, jei norite nutolinti; arba žalių rodyklių gretimoms žemėlapius.


METAR-TAF: